Time;durP1;ratioP1;P1;durP2;ratioP2;P2;SDS_P1;SDS_P2;PMS_P1;PMS_P2;Temp;Humidity;BMP_temperature;BMP_pressure;BME280_temperature;BME280_humidity;BME280_pressure;Samples;Min_cycle;Max_cycle;Signal;HPM_P1;HPM_P2
2022/06/11 00:01:52;;;;;;;;;;;;;;;-149.78;100.00;50084.22;5095421;28;19916;-72
2022/06/11 00:04:24;;;;;;;;;;;;;;;-149.78;100.00;50107.69;5096112;28;19920;-72
2022/06/11 00:06:51;;;;;;;;;;;;;;;-149.78;100.00;50115.50;5099609;28;19934;-72
2022/06/11 00:09:18;;;;;;;;;;;;;;;-149.78;100.00;50111.59;5099972;28;19946;-72
2022/06/11 00:11:44;;;;;;;;;;;;;;;-149.78;100.00;50135.06;5101329;28;20868;-72
2022/06/11 00:14:10;;;;;;;;;;;;;;;-149.78;100.00;50092.03;5099596;28;19924;-72
2022/06/11 00:16:35;;;;;;;;;;;;;;;-149.78;100.00;50135.06;5098317;28;19926;-72
2022/06/11 00:19:03;;;;;;;;;;;;;;;-149.78;100.00;50135.06;5097860;28;20355;-72
2022/06/11 00:21:31;;;;;;;;;;;;;;;-149.78;100.00;50131.16;5096027;28;19941;-72
2022/06/11 00:23:57;;;;;;;;;;;;;;;-149.78;100.00;50113.56;5099564;28;19916;-73
2022/06/11 00:26:22;;;;;;;;;;;;;;;-149.78;100.00;50148.75;5098430;28;19969;-72
2022/06/11 00:28:48;;;;;;;;;;;;;;;-149.78;100.00;50131.16;5099526;28;19977;-72
2022/06/11 00:31:13;;;;;;;;;;;;;;;-149.78;100.00;50148.75;5097459;28;19927;-72
2022/06/11 00:33:39;;;;;;;;;;;;;;;-149.78;100.00;50101.81;5098896;28;19923;-71
2022/06/11 00:36:06;;;;;;;;;;;;;;;-149.78;100.00;50146.81;5098716;28;19946;-73
2022/06/11 00:38:32;;;;;;;;;;;;;;;-149.78;100.00;50115.50;5094219;28;20359;-72
2022/06/11 00:40:58;;;;;;;;;;;;;;;-149.78;100.00;50107.69;5101553;28;19924;-72
2022/06/11 00:43:25;;;;;;;;;;;;;;;-149.78;100.00;50107.69;5082465;28;19935;-72
2022/06/11 00:46:26;;;;;;;;;;;;;;;-149.78;100.00;50138.97;5097127;28;19973;-73
2022/06/11 00:48:51;;;;;;;;;;;;;;;-149.78;100.00;50129.19;5101304;28;20298;-73
2022/06/11 00:51:22;;;;;;;;;;;;;;;-149.78;100.00;50146.81;5099000;28;19932;-73
2022/06/11 00:53:50;;;;;;;;;;;;;;;-149.78;100.00;50138.97;5101386;28;20581;-72
2022/06/11 00:56:18;;;;;;;;;;;;;;;-149.78;100.00;50115.50;5097738;28;20133;-73
2022/06/11 00:58:45;;;;;;;;;;;;;;;-149.78;100.00;50138.97;5099790;28;19959;-73
2022/06/11 01:01:13;;;;;;;;;;;;;;;-149.78;100.00;50119.41;5098722;28;20422;-73
2022/06/11 01:03:40;;;;;;;;;;;;;;;-149.78;100.00;50138.97;5094293;28;19968;-73
2022/06/11 01:06:20;;;;;;;;;;;;;;;-149.78;100.00;50127.25;5098722;28;19928;-73
2022/06/11 01:08:45;;;;;;;;;;;;;;;-149.78;100.00;50170.25;5101297;28;20014;-72
2022/06/11 01:11:29;;;;;;;;;;;;;;;-149.78;100.00;50117.47;5098735;28;20014;-73
2022/06/11 01:13:57;;;;;;;;;;;;;;;-149.78;100.00;50158.53;5097689;28;19931;-72
2022/06/11 01:16:34;;;;;;;;;;;;;;;-149.78;100.00;50138.97;5097574;28;19920;-72
2022/06/11 01:19:04;;;;;;;;;;;;;;;-149.78;100.00;50162.44;5099626;28;19920;-72
2022/06/11 01:21:48;;;;;;;;;;;;;;;-149.78;100.00;50137.03;5096587;28;19924;-72
2022/06/11 01:24:22;;;;;;;;;;;;;;;-149.78;100.00;50154.63;5092191;28;19922;-72
2022/06/11 01:27:07;;;;;;;;;;;;;;;-149.78;100.00;50123.34;5098804;28;19924;-72
2022/06/11 01:29:46;;;;;;;;;;;;;;;-149.78;100.00;50123.34;5078760;28;19920;-72
2022/06/11 01:32:33;;;;;;;;;;;;;;;-149.78;100.00;50137.03;5097057;28;20008;-72
2022/06/11 01:35:02;;;;;;;;;;;;;;;-149.78;100.00;50135.06;5100147;28;19959;-73
2022/06/11 01:37:35;;;;;;;;;;;;;;;-149.78;100.00;50131.16;5098297;28;20878;-72
2022/06/11 01:40:05;;;;;;;;;;;;;;;-149.78;100.00;50158.53;5088389;28;19920;-72
2022/06/11 01:42:30;;;;;;;;;;;;;;;-149.78;100.00;50135.06;5096615;28;19942;-73
2022/06/11 01:45:15;;;;;;;;;;;;;;;-149.78;100.00;50162.44;5098885;28;19920;-73
2022/06/11 01:47:44;;;;;;;;;;;;;;;-149.78;100.00;50156.56;5097119;28;19916;-72
2022/06/11 01:50:10;;;;;;;;;;;;;;;-149.78;100.00;50138.97;5098488;28;19936;-72
2022/06/11 01:52:55;;;;;;;;;;;;;;;-149.78;100.00;50144.84;5097899;28;20350;-73
2022/06/11 01:55:20;;;;;;;;;;;;;;;-149.78;100.00;50123.34;5097224;28;19916;-72
2022/06/11 01:58:05;;;;;;;;;;;;;;;-149.78;100.00;50154.63;5098540;28;19923;-72
2022/06/11 02:00:47;;;;;;;;;;;;;;;-149.78;100.00;50138.97;5096865;28;19927;-73
2022/06/11 02:03:34;;;;;;;;;;;;;;;-149.78;100.00;50170.25;5097186;28;19915;-72
2022/06/11 02:05:59;;;;;;;;;;;;;;;-149.78;100.00;50137.03;5095256;28;19923;-72
2022/06/11 02:08:44;;;;;;;;;;;;;;;-149.78;100.00;50131.16;5094882;28;19924;-72
2022/06/11 02:11:16;;;;;;;;;;;;;;;-149.78;100.00;50142.88;5095328;28;19919;-71
2022/06/11 02:13:52;;;;;;;;;;;;;;;-149.78;100.00;50135.06;5093610;28;19974;-72
2022/06/11 02:16:25;;;;;;;;;;;;;;;-149.78;100.00;50127.25;5096936;28;20051;-72
2022/06/11 02:18:51;;;;;;;;;;;;;;;-149.78;100.00;50146.81;5097558;28;19924;-72
2022/06/11 02:21:19;;;;;;;;;;;;;;;-149.78;100.00;50158.53;5091502;28;19963;-72
2022/06/11 02:23:49;;;;;;;;;;;;;;;-149.78;100.00;50166.34;5097954;28;19920;-72
2022/06/11 02:26:19;;;;;;;;;;;;;;;-149.78;100.00;50166.34;5091971;28;20020;-72
2022/06/11 02:28:46;;;;;;;;;;;;;;;-149.78;100.00;50125.28;5075186;28;19920;-71
2022/06/11 02:31:15;;;;;;;;;;;;;;;-149.78;100.00;50131.16;5093813;28;19964;-71
2022/06/11 02:33:41;;;;;;;;;;;;;;;-149.78;100.00;50162.44;5097143;28;19919;-72
2022/06/11 02:36:10;;;;;;;;;;;;;;;-149.78;100.00;50135.06;5094774;28;19916;-72
2022/06/11 02:38:35;;;;;;;;;;;;;;;-149.78;100.00;50150.72;5087027;28;19916;-72
2022/06/11 02:41:04;;;;;;;;;;;;;;;-149.78;100.00;50138.97;5092882;28;19969;-72
2022/06/11 02:43:29;;;;;;;;;;;;;;;-149.78;100.00;50182.00;5089329;28;19924;-73
2022/06/11 02:45:55;;;;;;;;;;;;;;;-149.78;100.00;50189.81;5097113;28;20355;-73
2022/06/11 02:48:21;;;;;;;;;;;;;;;-149.78;100.00;50154.63;5094798;28;19930;-73
2022/06/11 02:50:47;;;;;;;;;;;;;;;-149.78;100.00;50150.72;5099223;28;20018;-73
2022/06/11 02:53:13;;;;;;;;;;;;;;;-149.78;100.00;50174.19;5102567;28;19929;-72
2022/06/11 02:55:40;;;;;;;;;;;;;;;-149.78;100.00;50156.56;5100509;28;19920;-72
2022/06/11 02:58:07;;;;;;;;;;;;;;;-149.78;100.00;50154.63;5098427;28;20378;-72
2022/06/11 03:00:35;;;;;;;;;;;;;;;-149.78;100.00;50137.03;5098728;28;20559;-72
2022/06/11 03:03:01;;;;;;;;;;;;;;;-149.78;100.00;50138.97;5100985;28;19924;-73
2022/06/11 03:05:29;;;;;;;;;;;;;;;-149.78;100.00;50172.22;5100832;28;19919;-72
2022/06/11 03:07:55;;;;;;;;;;;;;;;-149.78;100.00;50174.19;5098181;28;19954;-72
2022/06/11 03:10:22;;;;;;;;;;;;;;;-149.78;100.00;50150.72;5099992;28;19926;-72
2022/06/11 03:12:48;;;;;;;;;;;;;;;-149.78;100.00;50178.09;5101415;28;20390;-73
2022/06/11 03:15:15;;;;;;;;;;;;;;;-149.78;100.00;50183.97;5100004;28;19927;-73
2022/06/11 03:17:41;;;;;;;;;;;;;;;-149.78;100.00;50160.50;5101192;28;20758;-74
2022/06/11 03:20:08;;;;;;;;;;;;;;;-149.78;100.00;50158.53;5101647;28;19924;-74
2022/06/11 03:22:33;;;;;;;;;;;;;;;-149.78;100.00;50164.41;5095390;28;20016;-74
2022/06/11 03:24:59;;;;;;;;;;;;;;;-149.78;100.00;50154.63;5098798;28;20011;-74
2022/06/11 03:27:24;;;;;;;;;;;;;;;-149.78;100.00;50146.81;5100449;28;20669;-72
2022/06/11 03:29:51;;;;;;;;;;;;;;;-149.78;100.00;50170.25;5097973;28;19932;-74
2022/06/11 03:32:16;;;;;;;;;;;;;;;-149.78;100.00;50142.88;5098952;28;19916;-74
2022/06/11 03:34:42;;;;;;;;;;;;;;;-149.78;100.00;50154.63;5100977;28;19920;-74
2022/06/11 03:37:08;;;;;;;;;;;;;;;-149.78;100.00;50154.63;5100977;28;19924;-74
2022/06/11 03:39:34;;;;;;;;;;;;;;;-149.78;100.00;50178.09;5095014;28;20432;-74
2022/06/11 03:41:59;;;;;;;;;;;;;;;-149.78;100.00;50182.00;5101026;28;19923;-74
2022/06/11 03:44:25;;;;;;;;;;;;;;;-149.78;100.00;50197.66;5100678;28;20018;-74
2022/06/11 03:46:50;;;;;;;;;;;;;;;-149.78;100.00;50189.81;5096521;28;19927;-74
2022/06/11 03:49:16;;;;;;;;;;;;;;;-149.78;100.00;50187.88;5100742;28;19954;-73
2022/06/11 03:51:42;;;;;;;;;;;;;;;-149.78;100.00;50166.34;5098621;28;19931;-72
2022/06/11 03:54:07;;;;;;;;;;;;;;;-149.78;100.00;50158.53;5100325;27;19932;-72
2022/06/11 03:56:34;;;;;;;;;;;;;;;-149.78;100.00;50150.72;5097629;28;20359;-73
2022/06/11 03:59:00;;;;;;;;;;;;;;;-149.78;100.00;50172.22;5099837;28;19931;-74
2022/06/11 04:01:25;;;;;;;;;;;;;;;-149.78;100.00;50164.41;5101779;28;19927;-73
2022/06/11 04:03:53;;;;;;;;;;;;;;;-149.78;100.00;50144.84;5097501;28;19927;-71
2022/06/11 04:06:22;;;;;;;;;;;;;;;-149.78;100.00;50156.56;5099943;28;19925;-71
2022/06/11 04:08:48;;;;;;;;;;;;;;;-149.78;100.00;50166.34;5100202;28;19924;-71
2022/06/11 04:11:14;;;;;;;;;;;;;;;-149.78;100.00;50178.09;5101406;28;19924;-70
2022/06/11 04:13:40;;;;;;;;;;;;;;;-149.78;100.00;50123.34;5100632;28;19923;-71
2022/06/11 04:16:07;;;;;;;;;;;;;;;-149.78;100.00;50170.25;5097745;28;21007;-71
2022/06/11 04:18:33;;;;;;;;;;;;;;;-149.78;100.00;50154.63;5101938;28;19922;-70
2022/06/11 04:21:00;;;;;;;;;;;;;;;-149.78;100.00;50182.00;5100348;28;19920;-71
2022/06/11 04:23:29;;;;;;;;;;;;;;;-149.78;100.00;50166.34;5098635;28;19938;-71
2022/06/11 04:25:56;;;;;;;;;;;;;;;-149.78;100.00;50150.72;5101323;28;20814;-71
2022/06/11 04:28:22;;;;;;;;;;;;;;;-149.78;100.00;50166.34;5098987;28;20705;-70
2022/06/11 04:30:48;;;;;;;;;;;;;;;-149.78;100.00;50166.34;5100603;28;19985;-70
2022/06/11 04:33:13;;;;;;;;;;;;;;;-149.78;100.00;50170.25;5096542;28;19923;-70
2022/06/11 04:35:39;;;;;;;;;;;;;;;-149.78;100.00;50162.44;5099530;28;19924;-71
2022/06/11 04:38:05;;;;;;;;;;;;;;;-149.78;100.00;50138.97;5094627;28;20508;-70
2022/06/11 04:40:30;;;;;;;;;;;;;;;-149.78;100.00;50168.31;5096218;28;19920;-71
2022/06/11 04:42:56;;;;;;;;;;;;;;;-149.78;100.00;50160.50;5098613;28;20006;-71
2022/06/11 04:45:21;;;;;;;;;;;;;;;-149.78;100.00;50182.00;5096464;28;20006;-71
2022/06/11 04:47:47;;;;;;;;;;;;;;;-149.78;100.00;50160.50;5097998;28;19927;-71
2022/06/11 04:50:15;;;;;;;;;;;;;;;-149.78;100.00;50213.28;5095742;28;19943;-71
2022/06/11 04:52:40;;;;;;;;;;;;;;;-149.78;100.00;50189.81;5096948;28;19920;-71
2022/06/11 04:55:06;;;;;;;;;;;;;;;-149.78;100.00;50154.63;5099082;28;19927;-71
2022/06/11 04:57:32;;;;;;;;;;;;;;;-149.78;100.00;50131.16;5098174;28;19923;-71
2022/06/11 04:59:58;;;;;;;;;;;;;;;-149.78;100.00;50174.19;5095322;28;19924;-71
2022/06/11 05:02:25;;;;;;;;;;;;;;;-149.78;100.00;50223.06;5099637;28;20129;-71
2022/06/11 05:04:52;;;;;;;;;;;;;;;-149.78;100.00;50174.19;5095775;28;19930;-71
2022/06/11 05:07:18;;;;;;;;;;;;;;;-149.78;100.00;50170.25;5094294;28;19927;-71
2022/06/11 05:09:44;;;;;;;;;;;;;;;-149.78;100.00;50160.50;5095545;28;19939;-71
2022/06/11 05:12:10;;;;;;;;;;;;;;;-149.78;100.00;50158.53;5092811;28;19928;-71
2022/06/11 05:14:36;;;;;;;;;;;;;;;-149.78;100.00;50185.91;5100768;28;19958;-72
2022/06/11 05:17:02;;;;;;;;;;;;;;;-149.78;100.00;50176.13;5093853;28;19926;-71
2022/06/11 05:19:27;;;;;;;;;;;;;;;-149.78;100.00;50154.63;5097537;28;19934;-71
2022/06/11 05:21:53;;;;;;;;;;;;;;;-149.78;100.00;50164.41;5097201;28;19938;-72
2022/06/11 05:24:21;;;;;;;;;;;;;;;-149.78;100.00;50174.19;5092379;28;19916;-71
2022/06/11 05:26:58;;;;;;;;;;;;;;;-149.78;100.00;50197.66;5098392;28;20382;-72
2022/06/11 05:29:29;;;;;;;;;;;;;;;-149.78;100.00;50154.63;5093634;28;19923;-71
2022/06/11 05:31:55;;;;;;;;;;;;;;;-149.78;100.00;50168.31;5095971;28;20174;-71
2022/06/11 05:34:21;;;;;;;;;;;;;;;-149.78;100.00;50176.13;5097939;28;19943;-71
2022/06/11 05:36:47;;;;;;;;;;;;;;;-149.78;100.00;50162.44;5095460;28;20045;-71
2022/06/11 05:39:13;;;;;;;;;;;;;;;-149.78;100.00;50166.34;5091862;28;20014;-72
2022/06/11 05:41:39;;;;;;;;;;;;;;;-149.78;100.00;50182.00;5094263;28;20393;-72
2022/06/11 05:44:05;;;;;;;;;;;;;;;-149.78;100.00;50135.06;5097481;28;20367;-72
2022/06/11 05:46:32;;;;;;;;;;;;;;;-149.78;100.00;50178.09;5095570;28;19930;-72
2022/06/11 05:49:01;;;;;;;;;;;;;;;-149.78;100.00;50158.53;5096205;28;19919;-72
2022/06/11 05:51:33;;;;;;;;;;;;;;;-149.78;100.00;50131.16;5094290;28;20476;-72
2022/06/11 05:54:01;;;;;;;;;;;;;;;-149.78;100.00;50133.09;5097575;28;19951;-73
2022/06/11 05:56:26;;;;;;;;;;;;;;;-149.78;100.00;50193.72;5097041;28;19923;-75
2022/06/11 05:58:54;;;;;;;;;;;;;;;-149.78;100.00;50158.53;5095848;28;19927;-73
2022/06/11 06:01:23;;;;;;;;;;;;;;;-149.78;100.00;50138.97;5099015;28;19953;-73
2022/06/11 06:03:48;;;;;;;;;;;;;;;-149.78;100.00;50154.63;5096702;28;20516;-73
2022/06/11 06:06:14;;;;;;;;;;;;;;;-149.78;100.00;50176.13;5095154;28;19928;-73
2022/06/11 06:08:41;;;;;;;;;;;;;;;-149.78;100.00;50158.53;5095243;28;19928;-73
2022/06/11 06:11:08;;;;;;;;;;;;;;;-149.78;100.00;50142.88;5097045;28;20570;-73
2022/06/11 06:13:50;;;;;;;;;;;;;;;-149.78;100.00;50158.53;5096539;28;19962;-73
2022/06/11 06:16:20;;;;;;;;;;;;;;;-149.78;100.00;50146.81;5092698;28;20017;-72
2022/06/11 06:18:49;;;;;;;;;;;;;;;-149.78;100.00;50174.19;5093510;28;20298;-72
2022/06/11 06:21:16;;;;;;;;;;;;;;;-149.78;100.00;50133.09;5091942;28;19972;-71
2022/06/11 06:23:41;;;;;;;;;;;;;;;-149.78;100.00;50115.50;5089041;28;20003;-72
2022/06/11 06:26:07;;;;;;;;;;;;;;;-149.78;100.00;50103.78;5079978;28;19967;-72
2022/06/11 06:28:34;;;;;;;;;;;;;;;-149.78;100.00;50138.97;5088918;28;19920;-71
2022/06/11 06:31:00;;;;;;;;;;;;;;;-149.78;100.00;50125.28;5090238;28;19927;-71
2022/06/11 06:33:26;;;;;;;;;;;;;;;-149.78;100.00;50111.59;5088789;28;19920;-71
2022/06/11 06:35:51;;;;;;;;;;;;;;;-149.78;100.00;50146.81;5088759;28;19927;-71
2022/06/11 06:38:17;;;;;;;;;;;;;;;-149.78;100.00;50107.69;5083792;28;19920;-71
2022/06/11 06:40:43;;;;;;;;;;;;;;;-149.78;100.00;50144.84;5080459;28;19991;-71
2022/06/11 06:43:08;;;;;;;;;;;;;;;-149.78;100.00;50158.53;5084175;28;20367;-73
2022/06/11 06:45:34;;;;;;;;;;;;;;;-149.78;100.00;50127.25;5084539;28;20332;-72
2022/06/11 06:48:02;;;;;;;;;;;;;;;-149.78;100.00;50119.41;5089620;28;19915;-72
2022/06/11 06:50:28;;;;;;;;;;;;;;;-149.78;100.00;50103.78;5088609;28;19970;-72
2022/06/11 06:52:54;;;;;;;;;;;;;;;-149.78;100.00;50092.03;5088706;28;19928;-72
2022/06/11 06:55:19;;;;;;;;;;;;;;;-149.78;100.00;50123.34;5086868;28;19924;-72
2022/06/11 06:57:45;;;;;;;;;;;;;;;-149.78;100.00;50070.53;5093698;28;19919;-73
2022/06/11 07:00:11;;;;;;;;;;;;;;;-149.78;100.00;50121.38;5089127;28;20393;-73
2022/06/11 07:02:38;;;;;;;;;;;;;;;-149.78;100.00;50115.50;5087328;28;19995;-74
2022/06/11 07:05:03;;;;;;;;;;;;;;;-149.78;100.00;50123.34;5093559;28;20363;-73
2022/06/11 07:07:29;;;;;;;;;;;;;;;-149.78;100.00;50123.34;5085952;28;20262;-71
2022/06/11 07:09:55;;;;;;;;;;;;;;;-149.78;100.00;50107.69;5092997;28;19928;-74
2022/06/11 07:12:21;;;;;;;;;;;;;;;-149.78;100.00;50097.91;5090094;28;19930;-74
2022/06/11 07:14:47;;;;;;;;;;;;;;;-149.78;100.00;50129.19;5090733;28;19923;-73
2022/06/11 07:17:13;;;;;;;;;;;;;;;-149.78;100.00;50119.41;5086433;28;19927;-72
2022/06/11 07:19:41;;;;;;;;;;;;;;;-149.78;100.00;50095.94;5093569;28;19931;-71
2022/06/11 07:22:09;;;;;;;;;;;;;;;-149.78;100.00;50111.59;5087562;28;20007;-73
2022/06/11 07:24:36;;;;;;;;;;;;;;;-149.78;100.00;50045.09;5075000;28;19924;-72
2022/06/11 07:27:06;;;;;;;;;;;;;;;-149.78;100.00;50039.25;5076422;28;19920;-72
2022/06/11 07:29:36;;;;;;;;;;;;;;;-149.78;98.45;50017.72;5074476;28;19924;-73
2022/06/11 07:32:03;;;;;;;;;;;;;;;-149.78;76.43;49970.78;5082758;28;19917;-73
2022/06/11 07:34:29;;;;;;;;;;;;;;;-149.78;67.76;49986.44;5077476;28;19969;-73
2022/06/11 07:36:56;;;;;;;;;;;;;;;-149.78;61.64;49939.50;5080567;28;19924;-73
2022/06/11 07:39:22;;;;;;;;;;;;;;;-149.78;59.39;49939.50;5082679;28;20023;-73
2022/06/11 07:41:47;;;;;;;;;;;;;;;-149.78;58.98;49947.34;5081929;28;19980;-74
2022/06/11 07:44:13;;;;;;;;;;;;;;;-149.78;53.58;49904.31;5089030;28;19928;-73
2022/06/11 07:46:38;;;;;;;;;;;;;;;-149.78;49.81;49898.44;5090213;28;20017;-74
2022/06/11 07:49:04;;;;;;;;;;;;;;;-149.78;44.87;49849.56;5092759;28;19991;-73
2022/06/11 07:51:30;;;;;;;;;;;;;;;-149.78;45.77;49873.03;5085649;28;19934;-71
2022/06/11 07:53:55;;;;;;;;;;;;;;;-149.78;48.21;49880.84;5096701;28;19997;-73
2022/06/11 07:56:21;;;;;;;;;;;;;;;-149.78;46.22;49916.03;5095224;28;19920;-73
2022/06/11 07:58:49;;;;;;;;;;;;;;;-149.78;43.45;49861.28;5095973;28;20003;-73
2022/06/11 08:01:16;;;;;;;;;;;;;;;-149.78;43.73;49863.25;5095253;28;19931;-72
2022/06/11 08:03:42;;;;;;;;;;;;;;;-149.78;42.03;49861.28;5091807;28;20032;-72
2022/06/11 08:06:08;;;;;;;;;;;;;;;-149.78;43.49;49861.28;5092526;28;20006;-72
2022/06/11 08:08:34;;;;;;;;;;;;;;;-149.78;45.52;49892.56;5088447;28;20100;-71
2022/06/11 08:11:01;;;;;;;;;;;;;;;-149.78;42.78;49869.13;5094809;28;20025;-71
2022/06/11 08:13:27;;;;;;;;;;;;;;;-149.78;44.54;49900.41;5092836;28;19924;-70
2022/06/11 08:15:53;;;;;;;;;;;;;;;-149.78;44.00;49853.47;5096298;28;19916;-71
2022/06/11 08:18:19;;;;;;;;;;;;;;;-149.78;42.51;49853.47;5095740;28;20591;-70
2022/06/11 08:20:46;;;;;;;;;;;;;;;-149.78;39.11;49847.59;5093127;28;20022;-74
2022/06/11 08:23:12;;;;;;;;;;;;;;;-149.78;37.73;49831.97;5090444;28;20411;-73
2022/06/11 08:25:38;;;;;;;;;;;;;;;-149.78;35.89;49775.25;5083236;28;19925;-72
2022/06/11 08:28:03;;;;;;;;;;;;;;;-149.78;36.77;49802.63;5087399;28;19934;-74
2022/06/11 08:30:30;;;;;;;;;;;;;;;-149.78;36.00;49814.34;5075557;28;20405;-73
2022/06/11 08:32:55;;;;;;;;;;;;;;;-149.78;37.64;49824.13;5087189;28;19931;-73
2022/06/11 08:35:22;;;;;;;;;;;;;;;-149.78;37.13;49810.44;5102189;27;19951;-74
2022/06/11 08:37:49;;;;;;;;;;;;;;;-149.78;35.65;49786.97;5090283;28;19977;-73
2022/06/11 08:40:17;;;;;;;;;;;;;;;-149.78;35.37;49775.25;5090243;28;19972;-71
2022/06/11 08:42:43;;;;;;;;;;;;;;;-149.78;35.32;49775.25;5096152;28;19923;-72
2022/06/11 08:45:16;;;;;;;;;;;;;;;-149.78;34.74;49800.66;5093892;28;20027;-74
2022/06/11 08:47:48;;;;;;;;;;;;;;;-149.78;35.80;49826.09;5091233;28;19989;-74
2022/06/11 08:50:16;;;;;;;;;;;;;;;-149.78;37.79;49794.81;5092424;28;19928;-73
2022/06/11 08:52:42;;;;;;;;;;;;;;;-149.78;35.47;49831.97;5094965;28;20916;-75
2022/06/11 08:55:08;;;;;;;;;;;;;;;-149.78;35.20;49777.22;5091339;28;19924;-76
2022/06/11 08:57:52;;;;;;;;;;;;;;;-149.78;34.05;49755.69;5095100;28;20029;-74
2022/06/11 09:00:30;;;;;;;;;;;;;;;-149.78;33.59;49763.53;5092749;28;21304;-73
2022/06/11 09:03:10;;;;;;;;;;;;;;;-149.78;34.88;49826.09;5093623;28;20017;-72
2022/06/11 09:05:54;;;;;;;;;;;;;;;-149.78;34.17;49783.06;5092260;28;19924;-71
2022/06/11 09:08:20;;;;;;;;;;;;;;;-149.78;34.23;49743.97;5098904;28;20428;-73
2022/06/11 09:10:51;;;;;;;;;;;;;;;-149.78;33.20;49786.97;5097285;28;19932;-73
2022/06/11 09:13:26;;;;;;;;;;;;;;;-149.78;35.29;49833.91;5096025;28;19923;-72
2022/06/11 09:16:07;;;;;;;;;;;;;;;-149.78;37.96;49896.50;5094820;28;19985;-72
2022/06/11 09:18:36;;;;;;;;;;;;;;;-149.78;39.01;49919.94;5094390;28;19920;-72
2022/06/11 09:21:01;;;;;;;;;;;;;;;-149.78;41.27;49931.69;5092952;28;19923;-73
2022/06/11 09:23:27;;;;;;;;;;;;;;;-149.78;45.31;49982.53;5092596;28;19916;-72
2022/06/11 09:25:55;;;;;;;;;;;;;;;-149.78;47.13;49962.97;5090170;28;20569;-73
2022/06/11 09:28:40;;;;;;;;;;;;;;;-149.78;51.47;49976.66;5095347;28;19920;-72
2022/06/11 09:31:19;;;;;;;;;;;;;;;-149.78;49.70;49959.06;5094256;28;20686;-72
2022/06/11 09:33:59;;;;;;;;;;;;;;;-149.78;51.27;49974.72;5096147;28;20295;-72
2022/06/11 09:36:33;;;;;;;;;;;;;;;-149.78;48.88;49964.94;5095237;28;20367;-72
2022/06/11 09:39:07;;;;;;;;;;;;;;;-149.78;50.75;49978.63;5098822;28;20034;-72
2022/06/11 09:41:41;;;;;;;;;;;;;;;-149.78;51.05;49959.06;5095979;28;19942;-72
2022/06/11 09:44:21;;;;;;;;;;;;;;;-149.78;50.17;49939.50;5099086;28;20642;-72
2022/06/11 09:46:50;;;;;;;;;;;;;;;-149.78;46.38;49900.41;5097036;28;20656;-72
2022/06/11 09:49:15;;;;;;;;;;;;;;;-149.78;41.04;49912.13;5091556;28;20302;-72
2022/06/11 09:51:47;;;;;;;;;;;;;;;-149.78;42.38;49945.38;5097526;28;19928;-72
2022/06/11 09:54:27;;;;;;;;;;;;;;;-149.78;44.90;49923.88;5092073;28;19927;-72
2022/06/11 09:57:03;;;;;;;;;;;;;;;-149.78;46.09;49939.50;5095433;28;20449;-72
2022/06/11 09:59:35;;;;;;;;;;;;;;;-149.78;48.37;49966.88;5091863;28;19924;-73
2022/06/11 10:02:07;;;;;;;;;;;;;;;-149.78;50.77;49990.34;5085272;28;19931;-73
2022/06/11 10:04:35;;;;;;;;;;;;;;;-149.78;52.16;50002.09;5083164;28;19928;-72
2022/06/11 10:07:07;;;;;;;;;;;;;;;-149.78;54.68;49986.44;5086451;28;19974;-73
2022/06/11 10:09:32;;;;;;;;;;;;;;;-149.78;54.43;49996.22;5090576;28;19927;-73
2022/06/11 10:12:03;;;;;;;;;;;;;;;-149.78;54.79;49994.25;5088236;28;20443;-73
2022/06/11 10:14:28;;;;;;;;;;;;;;;-149.78;57.09;49978.63;5086918;28;19927;-72
2022/06/11 10:17:00;;;;;;;;;;;;;;;-149.78;57.15;50006.00;5088420;28;19924;-74
2022/06/11 10:19:31;;;;;;;;;;;;;;;-149.78;59.45;50002.09;5091398;28;19924;-74
2022/06/11 10:22:01;;;;;;;;;;;;;;;-149.78;60.29;50039.25;5088551;28;19920;-74
2022/06/11 10:24:27;;;;;;;;;;;;;;;-149.78;62.98;50017.72;5084544;28;19956;-74
2022/06/11 10:26:57;;;;;;;;;;;;;;;-149.78;62.87;50006.00;5078320;28;20405;-72
2022/06/11 10:30:02;;;;;;;;;;;;;;;-149.78;66.25;50029.47;5082521;28;20314;-74
2022/06/11 10:32:37;;;;;;;;;;;;;;;-149.78;65.62;50009.91;5035231;28;20379;-73
2022/06/11 10:35:13;;;;;;;;;;;;;;;-149.78;70.29;50058.78;5032559;28;20003;-70
2022/06/11 10:37:43;;;;;;;;;;;;;;;-149.78;71.44;50045.09;5064882;28;20689;-72
2022/06/11 10:40:25;;;;;;;;;;;;;;;-149.78;73.55;50017.72;5088274;28;19916;-73
2022/06/11 10:42:58;;;;;;;;;;;;;;;-149.78;71.73;50002.09;5088738;28;19924;-73
2022/06/11 10:45:24;;;;;;;;;;;;;;;-149.78;70.83;49996.22;5090971;28;20038;-72
2022/06/11 10:47:51;;;;;;;;;;;;;;;-149.78;69.43;50023.59;5095234;28;19951;-72
2022/06/11 10:50:20;;;;;;;;;;;;;;;-149.78;68.57;50004.03;5088495;28;19939;-72
2022/06/11 10:53:01;;;;;;;;;;;;;;;-149.78;66.43;49994.25;5090130;28;19936;-72
2022/06/11 10:55:42;;;;;;;;;;;;;;;-149.78;67.10;49986.44;5089358;28;19919;-73
2022/06/11 10:58:10;;;;;;;;;;;;;;;-149.78;65.99;50006.00;5090716;28;19920;-72
2022/06/11 11:00:47;;;;;;;;;;;;;;;-149.78;60.44;49962.97;5091439;28;20302;-72
2022/06/11 11:03:20;;;;;;;;;;;;;;;-149.78;63.30;50013.81;5088994;28;20510;-72
2022/06/11 11:05:59;;;;;;;;;;;;;;;-149.78;63.17;49966.88;5093891;28;19924;-73
2022/06/11 11:08:25;;;;;;;;;;;;;;;-149.78;62.40;50039.25;5094489;28;19966;-73
2022/06/11 11:10:52;;;;;;;;;;;;;;;-149.78;65.20;50023.59;5076607;28;19963;-73
2022/06/11 11:13:21;;;;;;;;;;;;;;;-149.78;65.98;50023.59;5100193;28;19931;-73
2022/06/11 11:15:54;;;;;;;;;;;;;;;-149.78;66.25;49998.19;5099472;28;19915;-73
2022/06/11 11:18:25;;;;;;;;;;;;;;;-149.78;64.53;50015.78;5094752;28;20387;-73
2022/06/11 11:20:53;;;;;;;;;;;;;;;-149.78;64.02;50039.25;5096167;28;20542;-73
2022/06/11 11:23:21;;;;;;;;;;;;;;;-149.78;63.61;50047.06;5093122;28;19923;-71
2022/06/11 11:25:50;;;;;;;;;;;;;;;-149.78;74.32;50021.63;5090705;28;20055;-75
2022/06/11 11:28:19;;;;;;;;;;;;;;;-149.78;72.31;50041.19;5071556;28;19925;-75
2022/06/11 11:30:45;;;;;;;;;;;;;;;-149.78;79.21;50002.09;5096637;28;20366;-73
2022/06/11 11:33:12;;;;;;;;;;;;;;;-149.78;68.41;50007.94;5097602;28;19919;-72
2022/06/11 11:35:39;;;;;;;;;;;;;;;-149.78;69.16;50021.63;5100980;28;20015;-74
2022/06/11 11:38:10;;;;;;;;;;;;;;;-149.78;65.23;49998.19;5098071;28;19920;-72
2022/06/11 11:40:48;;;;;;;;;;;;;;;-149.78;64.13;50009.91;5095821;28;19924;-73
2022/06/11 11:43:15;;;;;;;;;;;;;;;-149.78;62.18;50013.81;5091846;28;20598;-74
2022/06/11 11:45:43;;;;;;;;;;;;;;;-149.78;64.80;49994.25;5096550;28;19935;-74
2022/06/11 11:48:13;;;;;;;;;;;;;;;-149.78;64.23;50011.88;5094103;28;19931;-73
2022/06/11 11:50:40;;;;;;;;;;;;;;;-149.78;58.88;50013.81;5099472;28;19924;-73
2022/06/11 11:53:13;;;;;;;;;;;;;;;-149.78;59.17;49994.25;5099437;28;19977;-71
2022/06/11 11:55:40;;;;;;;;;;;;;;;-149.78;62.28;49959.06;5097513;28;20543;-73
2022/06/11 11:58:21;;;;;;;;;;;;;;;-149.78;60.44;49994.25;5097731;28;19959;-76
2022/06/11 12:00:57;;;;;;;;;;;;;;;-149.78;60.00;49990.34;5099743;28;19928;-77
2022/06/11 12:03:31;;;;;;;;;;;;;;;-149.78;57.89;49998.19;5095713;28;19923;-78
2022/06/11 12:05:58;;;;;;;;;;;;;;;-149.78;60.48;50021.63;5091756;28;19923;-78
2022/06/11 12:08:27;;;;;;;;;;;;;;;-149.78;58.44;49959.06;5095910;28;19942;-76
2022/06/11 12:10:57;;;;;;;;;;;;;;;-149.78;61.74;50025.56;5097512;28;19940;-74
2022/06/11 12:13:45;;;;;;;;;;;;;;;-149.78;57.64;49986.44;5091954;28;19919;-73
2022/06/11 12:16:17;;;;;;;;;;;;;;;-149.78;58.46;49982.53;5096494;28;19959;-76
2022/06/11 12:18:46;;;;;;;;;;;;;;;-149.78;57.66;49992.31;5094075;28;20568;-76
2022/06/11 12:21:13;;;;;;;;;;;;;;;-149.78;58.36;49982.53;5092985;28;19922;-75
2022/06/11 12:23:51;;;;;;;;;;;;;;;-149.78;57.96;49970.78;5090136;28;20018;-72
2022/06/11 12:26:18;;;;;;;;;;;;;;;-149.78;55.66;49951.25;5092001;28;19925;-71
2022/06/11 12:28:50;;;;;;;;;;;;;;;-149.78;56.54;49990.34;5089441;28;20410;-75
2022/06/11 12:31:17;;;;;;;;;;;;;;;-149.78;53.89;49939.50;5092943;28;19980;-75